Time;durP1;ratioP1;P1;durP2;ratioP2;P2;SDS_P1;SDS_P2;PMS_P1;PMS_P2;Temp;Humidity;BMP_temperature;BMP_pressure;BME280_temperature;BME280_humidity;BME280_pressure;Samples;Min_cycle;Max_cycle;Signal;HPM_P1;HPM_P2
2022/06/28 00:01:05;;;;;;;13.18;8.65;;;;;;;20.02;68.56;99912.72;1828021;78;21093;-80
2022/06/28 00:03:32;;;;;;;9.65;8.30;;;;;;;19.99;68.57;99907.13;1827817;78;21047;-80
2022/06/28 00:05:58;;;;;;;11.83;8.15;;;;;;;19.98;68.39;99912.08;1828117;78;21054;-80
2022/06/28 00:08:26;;;;;;;14.00;8.80;;;;;;;19.96;68.39;99911.33;1827625;78;21117;-79
2022/06/28 00:10:53;;;;;;;12.07;8.50;;;;;;;19.93;68.83;99916.03;1827860;78;21462;-80
2022/06/28 00:13:21;;;;;;;10.32;8.35;;;;;;;19.92;69.25;99911.63;1827667;78;21514;-81
2022/06/28 00:16:06;;;;;;;15.98;8.88;;;;;;;19.89;69.48;99910.04;1828143;77;21039;-80
2022/06/28 00:18:35;;;;;;;14.30;8.90;;;;;;;19.89;69.63;99908.70;1831044;77;21035;-82
2022/06/28 00:21:02;;;;;;;13.40;8.38;;;;;;;19.87;69.92;99906.62;1830742;78;20991;-81
2022/06/28 00:23:30;;;;;;;14.90;8.60;;;;;;;19.85;69.87;99903.17;1830833;78;21549;-81
2022/06/28 00:25:56;;;;;;;16.82;8.93;;;;;;;19.83;70.29;99904.61;1830799;78;21485;-81
2022/06/28 00:28:23;;;;;;;16.32;8.50;;;;;;;19.83;70.28;99905.10;1830841;77;21054;-82
2022/06/28 00:30:50;;;;;;;14.33;8.30;;;;;;;19.81;70.06;99903.02;1830803;78;20975;-82
2022/06/28 00:33:17;;;;;;;15.32;7.95;;;;;;;19.80;70.01;99897.29;1831105;78;20980;-81
2022/06/28 00:35:43;;;;;;;9.18;7.90;;;;;;;19.79;69.77;99901.78;1830894;78;21102;-81
2022/06/28 00:38:10;;;;;;;12.45;7.92;;;;;;;19.75;69.60;99899.41;1831083;78;21086;-80
2022/06/28 00:40:48;;;;;;;18.55;9.48;;;;;;;19.72;69.59;99902.25;1830733;78;21054;-81
2022/06/28 00:43:14;;;;;;;16.07;8.78;;;;;;;19.68;70.10;99902.45;1828485;77;21057;-81
2022/06/28 00:45:44;;;;;;;12.33;8.55;;;;;;;19.65;70.37;99901.34;1830813;78;21070;-82
2022/06/28 00:48:16;;;;;;;16.57;8.78;;;;;;;19.62;70.69;99900.20;1830949;78;20963;-81
2022/06/28 00:50:42;;;;;;;15.95;9.20;;;;;;;19.60;70.66;99895.45;1831462;78;21035;-81
2022/06/28 00:53:13;;;;;;;18.73;9.05;;;;;;;19.56;70.62;99896.59;1830990;78;21540;-79
2022/06/28 00:55:40;;;;;;;14.30;8.93;;;;;;;19.54;70.77;99899.85;1831344;77;20981;-82
2022/06/28 00:58:08;;;;;;;13.40;9.05;;;;;;;19.50;70.98;99909.00;1830667;78;22005;-82
2022/06/28 01:00:41;;;;;;;19.80;9.25;;;;;;;19.48;71.06;99907.80;1830809;78;21505;-80
2022/06/28 01:03:11;;;;;;;15.48;9.23;;;;;;;19.47;71.33;99911.89;1830716;78;22235;-82
2022/06/28 01:05:39;;;;;;;16.35;9.88;;;;;;;19.45;71.40;99906.66;1831262;78;20976;-81
2022/06/28 01:08:06;;;;;;;13.45;8.90;;;;;;;19.42;71.50;99900.67;1806339;78;21144;-83
2022/06/28 01:39:00;;;;;;;11.57;9.10;;;;;;;19.19;72.82;99890.99;1768120;77;21469;-76
2022/06/28 01:41:35;;;;;;;10.60;8.03;;;;;;;19.16;72.51;99890.34;1805109;79;21080;-81
2022/06/28 01:44:09;;;;;;;13.70;8.73;;;;;;;19.14;72.19;99891.77;1805432;79;21006;-81
2022/06/28 01:46:38;;;;;;;13.83;9.05;;;;;;;19.14;72.19;99896.25;1804908;78;21132;-81
2022/06/28 01:49:07;;;;;;;12.90;8.43;;;;;;;19.13;72.43;99888.70;1781037;79;21037;-82
2022/06/28 01:51:35;;;;;;;17.25;8.03;;;;;;;19.10;72.16;99888.45;1805162;78;21060;-81
2022/06/28 01:54:03;;;;;;;11.30;8.18;;;;;;;19.09;71.82;99888.05;1780559;79;21010;-80
2022/06/28 01:56:33;;;;;;;11.43;8.23;;;;;;;19.08;71.82;99889.48;1805095;79;21599;-80
2022/06/28 01:59:01;;;;;;;13.00;8.40;;;;;;;19.06;71.84;99886.95;1803443;78;21108;-81
2022/06/28 02:01:30;;;;;;;10.23;7.85;;;;;;;19.05;71.87;99885.22;1781355;79;21187;-81
2022/06/28 02:03:57;;;;;;;13.60;8.20;;;;;;;19.04;71.96;99893.31;1805525;78;21056;-80
2022/06/28 02:06:34;;;;;;;12.20;8.43;;;;;;;19.01;72.29;99890.35;1805174;79;21072;-81
2022/06/28 02:09:03;;;;;;;14.30;8.45;;;;;;;19.01;72.52;99888.17;1805207;79;21057;-81
2022/06/28 02:11:31;;;;;;;10.18;8.13;;;;;;;19.00;72.64;99890.48;1804677;78;21132;-82
2022/06/28 02:13:58;;;;;;;11.48;8.00;;;;;;;19.02;72.97;99892.56;1813216;78;21111;-81
2022/06/28 02:16:25;;;;;;;12.85;8.43;;;;;;;19.02;73.04;99892.56;1804293;79;21598;-80
2022/06/28 02:18:52;;;;;;;15.03;8.55;;;;;;;19.03;73.31;99887.59;1813743;79;21041;-80
2022/06/28 02:21:19;;;;;;;14.80;8.50;;;;;;;19.02;73.82;99887.23;1813327;79;20993;-80
2022/06/28 02:23:48;;;;;;;12.15;8.20;;;;;;;19.03;74.29;99888.92;1813968;79;22010;-82
2022/06/28 02:26:14;;;;;;;12.40;8.00;;;;;;;19.04;74.24;99885.31;1812178;78;21564;-82
2022/06/28 02:28:41;;;;;;;11.28;8.05;;;;;;;19.06;74.12;99883.40;1805361;79;21578;-80
2022/06/28 02:31:11;;;;;;;8.85;7.25;;;;;;;19.06;73.90;99878.95;1805435;78;21619;-81
2022/06/28 02:33:38;;;;;;;10.95;7.97;;;;;;;19.09;73.65;99877.88;1805038;79;21017;-81
2022/06/28 02:41:36;;;;;;;;;;;;;;;19.20;73.87;99887.38;1817368;78;21103;-83
2022/06/28 02:44:03;;;;;;;10.82;9.18;;;;;;;19.23;73.82;99883.64;1814309;79;20193;-82
2022/06/28 02:46:30;;;;;;;13.80;9.70;;;;;;;19.24;74.21;99887.55;1814541;79;21040;-84
2022/06/28 02:48:57;;;;;;;14.65;8.75;;;;;;;19.27;75.06;99884.69;1814606;78;22205;-82
2022/06/28 02:51:24;;;;;;;15.20;8.30;;;;;;;19.31;75.03;99883.52;1814322;79;21575;-81
2022/06/28 02:53:52;;;;;;;15.45;8.73;;;;;;;19.36;74.61;99881.05;1814514;77;21072;-81
2022/06/28 02:56:19;;;;;;;11.20;8.40;;;;;;;19.41;74.41;99886.45;1814269;77;21072;-81
2022/06/28 02:58:46;;;;;;;12.13;7.65;;;;;;;19.46;74.00;99879.48;1814494;77;21013;-81
2022/06/28 03:01:13;;;;;;;14.20;9.03;;;;;;;19.52;73.68;99883.09;1814516;77;21131;-81
2022/06/28 03:03:40;;;;;;;10.10;8.88;;;;;;;19.58;73.82;99877.33;1814404;79;20993;-80
2022/06/28 03:06:07;;;;;;;12.50;8.93;;;;;;;19.65;74.41;99873.31;1815120;77;21046;-82
2022/06/28 03:08:34;;;;;;;9.30;7.97;;;;;;;19.73;73.61;99875.94;1820365;78;21046;-82
2022/06/28 03:11:00;;;;;;;11.18;7.85;;;;;;;19.80;73.56;99873.26;1819690;78;21478;-82
2022/06/28 03:13:27;;;;;;;8.60;7.50;;;;;;;19.86;72.62;99871.52;1820154;78;21054;-83
2022/06/28 03:15:53;;;;;;;9.00;8.10;;;;;;;19.93;72.73;99870.14;1820373;78;20976;-83
2022/06/28 03:18:21;;;;;;;10.32;7.25;;;;;;;20.00;73.58;99867.41;1820282;78;21023;-83
2022/06/28 03:20:48;;;;;;;13.72;8.38;;;;;;;20.08;73.96;99872.73;1820050;78;21062;-83
2022/06/28 03:23:14;;;;;;;12.75;8.48;;;;;;;20.17;74.51;99877.44;1819499;78;21035;-80
2022/06/28 03:25:43;;;;;;;13.60;8.13;;;;;;;20.24;74.92;99876.07;1820090;78;21758;-81
2022/06/28 03:28:09;;;;;;;13.50;8.15;;;;;;;20.31;75.09;99875.13;1820494;78;21016;-83
2022/06/28 03:30:37;;;;;;;10.80;7.92;;;;;;;20.40;75.05;99878.03;1819838;78;21042;-81
2022/06/28 03:33:04;;;;;;;9.95;6.97;;;;;;;20.48;75.31;99873.98;1820411;78;21071;-82
2022/06/28 03:35:32;;;;;;;12.75;7.90;;;;;;;20.58;75.46;99875.05;1820239;78;20951;-80
2022/06/28 03:37:59;;;;;;;7.95;6.95;;;;;;;20.70;75.50;99878.70;1820087;78;21791;-83
2022/06/28 03:40:27;;;;;;;11.95;6.55;;;;;;;20.80;75.57;99876.23;1813217;78;21055;-83
2022/06/28 03:42:55;;;;;;;8.30;5.87;;;;;;;20.88;75.74;99873.38;1805318;79;21020;-80
2022/06/28 03:45:22;;;;;;;6.28;5.72;;;;;;;21.01;76.25;99873.81;1816525;79;21146;-83
2022/06/28 03:47:50;;;;;;;8.45;5.65;;;;;;;21.13;75.97;99880.48;1817349;78;21019;-82
2022/06/28 03:50:33;;;;;;;7.12;6.03;;;;;;;21.25;76.33;99876.51;1762595;81;21793;-82
2022/06/28 03:53:02;;;;;;;6.28;5.67;;;;;;;21.37;76.36;99878.30;1797556;78;21126;-82
2022/06/28 03:55:29;;;;;;;7.30;6.00;;;;;;;21.48;76.26;99883.73;1816548;79;21023;-83
2022/06/28 03:57:56;;;;;;;7.97;5.55;;;;;;;21.60;76.20;99875.30;1805634;78;21005;-83
2022/06/28 04:00:23;;;;;;;7.70;5.67;;;;;;;21.71;76.03;99875.81;1805236;79;21637;-83
2022/06/28 04:02:50;;;;;;;7.25;5.83;;;;;;;21.82;76.08;99878.54;1805553;79;21115;-82
2022/06/28 04:05:22;;;;;;;7.03;6.03;;;;;;;21.94;76.37;99881.23;1805272;78;21542;-82
2022/06/28 04:07:48;;;;;;;10.20;5.28;;;;;;;22.05;76.25;99882.62;1816635;79;21055;-81
2022/06/28 04:10:16;;;;;;;5.50;4.97;;;;;;;22.16;75.84;99876.45;1820769;78;21094;-81
2022/06/28 04:12:44;;;;;;;8.05;5.20;;;;;;;22.26;75.52;99878.28;1816735;79;21097;-83
2022/06/28 04:15:15;;;;;;;7.17;5.22;;;;;;;22.36;75.00;99873.56;1815808;78;21104;-80
2022/06/28 04:17:44;;;;;;;5.95;5.22;;;;;;;22.48;74.14;99870.41;1816391;78;21111;-82
2022/06/28 04:20:29;;;;;;;7.30;4.83;;;;;;;22.57;73.37;99869.20;1805651;79;21674;-83
2022/06/28 04:22:58;;;;;;;5.17;4.53;;;;;;;22.69;72.57;99863.84;1805130;78;21003;-83
2022/06/28 04:25:25;;;;;;;5.03;4.50;;;;;;;22.80;71.91;99870.05;1805468;78;20996;-81
2022/06/28 04:27:56;;;;;;;9.85;5.22;;;;;;;22.89;71.37;99865.77;1805462;79;21572;-82
2022/06/28 04:30:20;;;;;;;5.70;4.80;;;;;;;22.98;71.33;99873.09;1805383;78;22321;-81
2022/06/28 04:32:51;;;;;;;5.20;4.78;;;;;;;23.08;71.49;99867.88;1805944;78;21063;-81
2022/06/28 04:35:19;;;;;;;5.35;4.85;;;;;;;23.19;71.03;99880.41;1816377;79;21070;-81
2022/06/28 04:37:45;;;;;;;7.83;4.80;;;;;;;23.29;70.86;99875.98;1805646;79;21186;-82
2022/06/28 04:40:23;;;;;;;7.25;4.87;;;;;;;23.41;70.67;99874.62;1808932;78;21116;-80
2022/06/28 04:42:51;;;;;;;8.50;4.60;;;;;;;23.53;70.26;99874.94;1812188;78;21091;-83
2022/06/28 04:45:18;;;;;;;8.10;4.33;;;;;;;23.63;69.29;99870.50;1759127;81;21017;-81
2022/06/28 04:47:47;;;;;;;5.35;4.85;;;;;;;23.74;68.51;99881.20;1759265;80;21174;-83
2022/06/28 04:50:14;;;;;;;4.70;4.30;;;;;;;23.83;68.33;99872.89;1759463;81;21973;-78
2022/06/28 04:52:41;;;;;;;5.15;4.75;;;;;;;23.93;67.73;99871.63;1759117;81;22214;-81
2022/06/28 04:55:09;;;;;;;5.22;4.30;;;;;;;24.02;66.64;99866.80;1759332;81;21829;-83
2022/06/28 04:57:45;;;;;;;4.90;4.10;;;;;;;24.15;66.34;99867.95;1759158;80;20989;-82
2022/06/28 05:00:15;;;;;;;4.50;4.10;;;;;;;24.25;65.95;99871.55;1759558;80;21123;-81
2022/06/28 05:02:43;;;;;;;4.78;4.25;;;;;;;24.34;65.91;99867.20;1759045;80;20977;-82
2022/06/28 05:05:11;;;;;;;4.40;4.10;;;;;;;24.42;65.49;99867.39;1759276;81;21120;-83
2022/06/28 05:07:40;;;;;;;11.97;4.40;;;;;;;24.51;64.69;99868.45;1759174;81;21016;-80
2022/06/28 05:10:08;;;;;;;7.90;4.40;;;;;;;24.60;63.83;99870.86;1759518;80;21641;-82
2022/06/28 05:12:38;;;;;;;7.33;3.58;;;;;;;24.68;63.75;99867.00;1759210;80;21327;-81
2022/06/28 05:15:06;;;;;;;5.20;4.03;;;;;;;24.77;63.03;99870.20;1757878;80;21075;-82
2022/06/28 05:17:34;;;;;;;5.62;3.50;;;;;;;24.84;62.59;99865.97;1731196;82;21215;-81
2022/06/28 05:20:02;;;;;;;5.12;3.75;;;;;;;24.91;62.01;99864.09;1752943;81;21012;-82
2022/06/28 05:22:29;;;;;;;6.10;3.83;;;;;;;24.97;62.60;99857.67;1763304;80;21542;-82
2022/06/28 05:24:57;;;;;;;5.60;4.00;;;;;;;25.07;63.00;99852.31;1761875;80;21045;-80
2022/06/28 05:27:24;;;;;;;4.25;3.95;;;;;;;25.17;62.11;99850.99;1761310;81;21186;-83
2022/06/28 05:29:51;;;;;;;8.50;3.92;;;;;;;25.28;61.81;99859.47;1761743;81;21102;-80
2022/06/28 05:32:18;;;;;;;4.75;4.08;;;;;;;25.35;61.21;99849.83;1761184;81;21063;-82
2022/06/28 05:34:45;;;;;;;5.00;3.90;;;;;;;25.45;60.80;99850.69;1761691;81;21162;-82
2022/06/28 05:37:11;;;;;;;6.53;3.98;;;;;;;25.55;61.16;99849.34;1761172;81;21142;-80
2022/06/28 05:39:38;;;;;;;7.40;3.85;;;;;;;25.63;59.81;99845.95;1761747;81;21506;-82
2022/06/28 05:42:05;;;;;;;5.00;3.67;;;;;;;25.70;59.85;99843.04;1758782;81;21832;-80
2022/06/28 05:44:32;;;;;;;6.15;3.90;;;;;;;25.79;59.55;99844.89;1758473;81;21084;-81
2022/06/28 05:46:59;;;;;;;7.00;3.30;;;;;;;25.88;59.38;99845.36;1758815;81;21009;-81
2022/06/28 05:49:25;;;;;;;4.87;4.00;;;;;;;25.98;59.16;99844.55;1758818;81;21047;-80
2022/06/28 05:51:52;;;;;;;3.90;3.60;;;;;;;26.09;59.19;99851.98;1758847;81;21590;-82
2022/06/28 05:54:18;;;;;;;4.00;3.65;;;;;;;26.18;58.21;99848.89;1758741;81;21760;-81
2022/06/28 05:56:45;;;;;;;5.55;3.83;;;;;;;26.28;58.07;99845.67;1758512;81;21507;-82
2022/06/28 05:59:12;;;;;;;7.08;3.27;;;;;;;26.37;58.17;99847.14;1758893;81;20997;-81
2022/06/28 06:01:39;;;;;;;4.78;3.42;;;;;;;26.47;57.37;99850.14;1758579;80;21083;-81
2022/06/28 06:04:05;;;;;;;7.75;3.30;;;;;;;26.56;57.28;99852.45;1758852;81;20983;-82
2022/06/28 06:06:32;;;;;;;5.03;3.15;;;;;;;26.65;56.62;99856.16;1758744;81;21143;-81
2022/06/28 06:08:59;;;;;;;4.37;3.37;;;;;;;26.74;54.93;99849.02;1758958;81;21071;-81
2022/06/28 06:11:26;;;;;;;6.12;3.12;;;;;;;26.82;55.69;99850.47;1758812;81;21001;-81
2022/06/28 06:13:53;;;;;;;3.58;3.35;;;;;;;26.91;55.32;99853.61;1758691;80;21107;-81
2022/06/28 06:16:19;;;;;;;10.40;3.12;;;;;;;27.00;55.57;99853.20;1759034;81;21036;-82
2022/06/28 06:18:47;;;;;;;6.92;3.20;;;;;;;27.08;54.12;99853.30;1758662;80;21143;-81
2022/06/28 06:21:14;;;;;;;4.03;3.25;;;;;;;27.17;53.94;99848.86;1758646;81;21135;-82
2022/06/28 06:23:41;;;;;;;4.72;3.00;;;;;;;27.25;53.84;99840.81;1758537;81;21068;-81
2022/06/28 06:26:13;;;;;;;4.03;2.90;;;;;;;27.34;53.67;99836.41;1757089;79;21114;-82
2022/06/28 06:28:40;;;;;;;3.65;3.10;;;;;;;27.42;53.18;99828.38;1758981;80;20980;-82
2022/06/28 06:31:09;;;;;;;3.58;3.27;;;;;;;27.50;53.05;99834.34;1758763;81;21087;-82
2022/06/28 06:33:54;;;;;;;3.83;3.08;;;;;;;27.58;53.16;99836.61;1758782;80;21036;-81
2022/06/28 06:36:25;;;;;;;6.87;3.55;;;;;;;27.69;52.62;99828.78;1751132;81;21094;-83
2022/06/28 06:38:52;;;;;;;4.15;2.98;;;;;;;27.77;52.47;99834.27;1758625;81;21020;-81
2022/06/28 06:41:18;;;;;;;8.33;2.90;;;;;;;27.87;52.61;99836.01;1759832;81;21569;-82
2022/06/28 06:43:46;;;;;;;4.70;2.55;;;;;;;27.94;51.80;99831.69;1760826;80;21152;-82
2022/06/28 06:46:15;;;;;;;8.33;3.00;;;;;;;28.03;52.03;99837.52;1760647;80;21095;-81
2022/06/28 06:48:42;;;;;;;5.65;2.70;;;;;;;28.14;51.98;99833.21;1761124;81;21531;-82
2022/06/28 06:51:10;;;;;;;3.87;2.75;;;;;;;28.26;51.60;99834.27;1760914;80;21087;-81
2022/06/28 06:53:37;;;;;;;3.90;2.35;;;;;;;28.36;51.66;99829.59;1761003;81;22055;-81
2022/06/28 06:56:04;;;;;;;4.03;2.80;;;;;;;28.46;50.92;99830.36;1762880;80;22108;-83
2022/06/28 06:58:31;;;;;;;3.67;2.85;;;;;;;28.55;50.23;99829.88;1760751;81;21128;-81
2022/06/28 07:00:58;;;;;;;3.47;2.72;;;;;;;28.63;49.60;99829.09;1761009;81;21071;-82
2022/06/28 07:03:25;;;;;;;3.27;2.90;;;;;;;28.70;48.97;99824.74;1760957;81;21491;-81
2022/06/28 07:05:52;;;;;;;2.62;2.52;;;;;;;28.80;48.60;99829.52;1761340;81;21127;-81
2022/06/28 07:08:21;;;;;;;2.60;2.40;;;;;;;28.88;48.39;99826.84;1760788;80;21080;-81
2022/06/28 07:10:52;;;;;;;5.28;2.75;;;;;;;28.96;48.63;99828.71;1761392;80;21092;-82
2022/06/28 07:13:18;;;;;;;2.87;2.40;;;;;;;29.05;47.63;99822.80;1760688;81;21076;-82
2022/06/28 07:15:45;;;;;;;2.83;2.50;;;;;;;29.13;46.95;99824.18;1759943;80;20991;-82
2022/06/28 07:18:12;;;;;;;6.42;2.40;;;;;;;29.20;46.67;99825.27;1745341;82;21122;-83
2022/06/28 07:20:39;;;;;;;2.55;2.25;;;;;;;29.25;45.67;99818.84;1748230;80;21150;-81
2022/06/28 07:23:06;;;;;;;3.00;2.70;;;;;;;29.32;46.22;99823.57;1776192;80;20941;-82
2022/06/28 07:25:34;;;;;;;5.53;2.90;;;;;;;29.41;46.41;99822.58;1776020;80;21059;-82
2022/06/28 07:28:00;;;;;;;4.35;2.77;;;;;;;29.51;46.48;99830.56;1776051;80;21367;-81
2022/06/28 07:30:27;;;;;;;6.58;3.30;;;;;;;29.58;45.93;99831.06;1775929;80;21056;-81
2022/06/28 07:32:54;;;;;;;4.30;3.08;;;;;;;29.67;45.70;99836.48;1776147;80;21487;-82
2022/06/28 07:35:24;;;;;;;4.53;3.10;;;;;;;29.73;45.84;99839.89;1776103;80;20996;-81
2022/06/28 07:37:49;;;;;;;4.95;3.27;;;;;;;29.78;45.32;99833.48;1776014;80;21114;-81
2022/06/28 07:40:16;;;;;;;3.72;3.12;;;;;;;29.81;45.62;99831.27;1775900;80;21565;-82
2022/06/28 07:42:48;;;;;;;3.70;2.75;;;;;;;29.89;44.98;99833.14;1773191;80;21113;-81
2022/06/28 07:45:31;;;;;;;3.80;2.92;;;;;;;29.95;44.79;99832.44;1763228;80;21175;-81
2022/06/28 07:48:03;;;;;;;7.22;3.00;;;;;;;30.04;44.76;99827.84;1776332;80;21506;-82
2022/06/28 07:53:17;;;;;;;4.53;3.05;;;;;;;30.22;44.67;99837.14;1776117;80;21107;-81
2022/06/28 07:55:48;;;;;;;3.10;2.77;;;;;;;30.33;44.44;99837.31;1775559;80;20988;-82
2022/06/28 07:58:17;;;;;;;3.62;2.58;;;;;;;30.42;44.12;99844.95;1775993;80;22012;-81
2022/06/28 08:00:44;;;;;;;2.95;2.65;;;;;;;30.50;43.92;99839.50;1775966;80;21468;-81
2022/06/28 08:03:12;;;;;;;4.92;2.72;;;;;;;30.58;43.91;99844.91;1776358;80;21060;-81
2022/06/28 08:05:39;;;;;;;4.33;3.02;;;;;;;30.70;44.13;99846.20;1775863;80;21046;-82
2022/06/28 08:08:06;;;;;;;4.35;2.65;;;;;;;30.72;42.77;99840.08;1776247;80;21079;-82
2022/06/28 08:10:34;;;;;;;5.58;2.62;;;;;;;30.74;42.13;99842.63;1775911;80;21134;-81
2022/06/28 08:13:02;;;;;;;2.33;2.17;;;;;;;30.74;42.81;99842.63;1775997;80;21071;-82
2022/06/28 08:15:29;;;;;;;3.27;2.58;;;;;;;30.74;42.24;99836.67;1776074;80;21134;-81
2022/06/28 08:17:55;;;;;;;3.15;2.70;;;;;;;30.74;42.72;99836.67;1776034;80;21087;-80
2022/06/28 08:20:23;;;;;;;2.98;2.52;;;;;;;30.77;43.22;99836.01;1775705;80;21047;-81
2022/06/28 08:22:50;;;;;;;7.83;2.30;;;;;;;30.80;43.06;99833.78;1776259;80;21135;-81
2022/06/28 08:25:17;;;;;;;2.60;2.40;;;;;;;30.83;43.13;99833.92;1775884;80;20976;-81
2022/06/28 08:27:44;;;;;;;5.75;2.87;;;;;;;30.88;42.92;99835.59;1776029;80;21051;-81
2022/06/28 08:30:11;;;;;;;2.45;2.30;;;;;;;30.90;42.57;99833.53;1776020;80;21067;-81
2022/06/28 08:32:38;;;;;;;4.75;2.42;;;;;;;30.91;42.87;99823.85;1775995;80;21011;-82
2022/06/28 08:35:06;;;;;;;4.42;2.60;;;;;;;30.97;42.63;99830.50;1776074;80;21601;-81
2022/06/28 08:37:33;;;;;;;5.97;2.52;;;;;;;31.03;42.90;99828.41;1775772;80;21573;-82
2022/06/28 08:40:00;;;;;;;4.70;2.50;;;;;;;31.13;42.39;99824.11;1775934;80;21114;-82
2022/06/28 08:42:30;;;;;;;10.00;2.50;;;;;;;31.21;41.62;99823.22;1763810;80;21095;-81
2022/06/28 08:45:01;;;;;;;4.55;2.58;;;;;;;31.24;42.03;99825.06;1758563;81;21527;-80
2022/06/28 08:47:34;;;;;;;2.72;2.52;;;;;;;31.30;41.17;99818.92;1758700;81;21114;-81
2022/06/28 08:50:14;;;;;;;2.53;2.40;;;;;;;31.36;40.12;99820.06;1758764;81;21001;-82
2022/06/28 08:52:41;;;;;;;4.12;2.60;;;;;;;31.41;39.65;99818.16;1758363;81;21048;-81
2022/06/28 08:55:09;;;;;;;2.60;2.40;;;;;;;31.48;40.59;99821.84;1758989;80;21516;-81
2022/06/28 08:57:36;;;;;;;4.22;2.33;;;;;;;31.52;40.62;99815.03;1758260;80;22087;-81
2022/06/28 09:00:08;;;;;;;7.08;2.90;;;;;;;31.53;40.31;99815.89;1758878;81;21475;-81
2022/06/28 09:02:34;;;;;;;5.58;2.60;;;;;;;31.49;39.95;99818.94;1758466;81;20981;-80
2022/06/28 09:05:01;;;;;;;2.98;2.67;;;;;;;31.43;40.20;99814.22;1758645;80;21064;-81
2022/06/28 09:07:28;;;;;;;2.80;2.60;;;;;;;31.40;40.70;99811.86;1758853;81;21147;-81
2022/06/28 09:09:55;;;;;;;7.20;2.77;;;;;;;31.46;41.09;99810.30;1758713;81;21111;-82
2022/06/28 09:12:22;;;;;;;4.72;2.70;;;;;;;31.52;39.27;99804.67;1758828;80;21105;-81
2022/06/28 09:14:48;;;;;;;6.42;2.45;;;;;;;31.60;39.68;99807.33;1758522;81;21103;-81
2022/06/28 09:17:29;;;;;;;5.87;2.70;;;;;;;31.73;40.66;99809.45;1758416;81;21107;-82
2022/06/28 09:20:03;;;;;;;5.33;2.65;;;;;;;31.84;40.41;99808.98;1758648;80;21562;-81
2022/06/28 09:22:40;;;;;;;3.02;2.65;;;;;;;31.96;41.04;99802.08;1758725;81;21131;-81
2022/06/28 09:25:12;;;;;;;2.42;2.15;;;;;;;32.10;40.73;99799.07;1749599;80;21075;-83
2022/06/28 09:27:41;;;;;;;3.12;2.52;;;;;;;32.21;39.64;99795.89;1734626;82;21591;-81
2022/06/28 09:30:11;;;;;;;3.22;2.10;;;;;;;32.30;38.49;99798.53;1731325;82;21024;-81
2022/06/28 09:32:39;;;;;;;6.53;2.58;;;;;;;32.30;38.79;99798.53;1731018;82;21107;-81
2022/06/28 09:35:10;;;;;;;3.25;2.58;;;;;;;32.29;38.17;99796.83;1730955;82;21099;-83
2022/06/28 09:37:49;;;;;;;3.70;2.33;;;;;;;32.15;37.97;99791.71;1731315;82;21771;-81
2022/06/28 09:40:29;;;;;;;2.90;2.70;;;;;;;32.13;38.83;99790.53;1709679;82;21221;-81
2022/06/28 09:43:15;;;;;;;2.65;2.20;;;;;;;32.18;39.10;99785.38;1722098;82;21031;-81
2022/06/28 09:45:44;;;;;;;3.62;2.75;;;;;;;32.21;38.80;99780.92;1755253;81;21533;-81
2022/06/28 09:48:18;;;;;;;4.67;2.52;;;;;;;32.24;38.86;99780.21;1755549;81;21073;-81
2022/06/28 09:50:45;;;;;;;4.22;2.70;;;;;;;32.24;38.69;99774.77;1755431;81;25833;-81
2022/06/28 09:53:20;;;;;;;7.97;2.60;;;;;;;32.16;38.42;99775.69;1755569;81;21054;-81
2022/06/28 09:55:45;;;;;;;3.80;2.85;;;;;;;32.18;39.25;99777.73;1755344;81;21674;-81
2022/06/28 09:58:12;;;;;;;4.22;3.02;;;;;;;32.28;39.63;99773.34;1755644;81;21033;-81
2022/06/28 10:00:39;;;;;;;2.40;2.20;;;;;;;32.40;38.98;99769.97;1755251;81;21558;-81
2022/06/28 10:03:06;;;;;;;4.42;2.65;;;;;;;32.51;38.27;99763.70;1755584;81;21156;-81
2022/06/28 10:05:33;;;;;;;10.30;2.80;;;;;;;32.65;38.60;99765.61;1755251;81;20983;-82
2022/06/28 10:08:00;;;;;;;5.42;2.65;;;;;;;32.75;38.09;99759.34;1755429;81;21030;-81
2022/06/28 10:10:26;;;;;;;4.12;2.67;;;;;;;32.80;37.79;99756.05;1755336;81;21058;-81
2022/06/28 10:15:50;;;;;;;7.78;2.65;;;;;;;32.83;37.24;99754.27;1755272;81;21116;-81
2022/06/28 10:18:20;;;;;;;7.08;2.90;;;;;;;32.87;37.21;99746.05;1814520;79;21305;-82
2022/06/28 10:20:47;;;;;;;2.47;2.37;;;;;;;32.96;37.54;99757.14;1813536;79;21039;-81
2022/06/28 10:23:36;;;;;;;7.05;2.83;;;;;;;33.05;37.42;99748.34;1814843;79;21011;-81
2022/06/28 10:26:19;;;;;;;6.45;2.80;;;;;;;33.18;36.77;99752.27;1784894;79;21061;-81
2022/06/28 10:29:01;;;;;;;3.42;2.70;;;;;;;33.19;36.07;99742.53;1814575;79;21098;-81
2022/06/28 10:31:38;;;;;;;7.03;2.20;;;;;;;33.24;36.86;99742.79;1813332;79;21110;-81
2022/06/28 10:34:08;;;;;;;3.17;2.87;;;;;;;33.29;36.54;99743.05;1814922;79;21035;-82
2022/06/28 10:36:53;;;;;;;2.62;2.50;;;;;;;33.33;36.32;99747.05;1814486;79;21554;-81
2022/06/28 10:39:26;;;;;;;9.28;2.52;;;;;;;33.37;35.93;99742.58;1815003;79;21121;-82
2022/06/28 10:42:06;;;;;;;4.90;3.15;;;;;;;33.45;36.44;99747.90;1814779;79;21787;-80
2022/06/28 10:44:38;;;;;;;4.95;2.58;;;;;;;33.54;35.87;99745.37;1816438;79;21137;-81
2022/06/28 10:47:10;;;;;;;3.08;2.70;;;;;;;33.56;35.59;99744.64;1816527;79;20999;-81
2022/06/28 10:49:52;;;;;;;8.03;2.67;;;;;;;33.64;35.88;99742.27;1816934;79;21055;-81
2022/06/28 10:52:25;;;;;;;3.40;2.50;;;;;;;33.72;35.92;99741.33;1816665;79;21074;-81
2022/06/28 10:54:57;;;;;;;3.35;2.52;;;;;;;33.85;35.74;99740.05;1816694;79;21874;-81
2022/06/28 10:57:34;;;;;;;3.50;2.60;;;;;;;33.99;35.22;99741.81;1816480;79;21055;-82
2022/06/28 11:00:05;;;;;;;2.87;2.58;;;;;;;34.11;34.48;99739.89;1816818;79;21077;-81
2022/06/28 11:02:56;;;;;;;2.85;2.52;;;;;;;34.19;34.61;99743.30;1816418;79;21051;-81
2022/06/28 11:05:25;;;;;;;3.55;2.70;;;;;;;34.31;34.42;99736.77;1816930;79;21081;-81
2022/06/28 11:08:02;;;;;;;2.67;2.42;;;;;;;34.45;34.98;99727.27;1816463;79;21146;-80
2022/06/28 11:10:29;;;;;;;3.10;2.40;;;;;;;34.56;34.49;99721.23;1816453;79;21454;-81
2022/06/28 11:13:18;;;;;;;5.97;2.50;;;;;;;34.67;34.35;99722.01;1816530;79;20997;-81
2022/06/28 11:15:44;;;;;;;2.95;2.75;;;;;;;34.76;34.04;99723.52;1816726;79;22196;-80
2022/06/28 11:18:16;;;;;;;2.55;2.35;;;;;;;34.84;33.00;99717.57;1816434;79;21035;-81
2022/06/28 11:20:43;;;;;;;4.60;2.52;;;;;;;34.85;33.37;99721.47;1782528;79;21106;-81
2022/06/28 11:23:09;;;;;;;5.12;2.77;;;;;;;34.92;33.48;99716.84;1816369;79;21042;-80
2022/06/28 11:28:22;;;;;;;4.90;2.52;;;;;;;34.98;33.27;99717.90;1816474;79;21482;-82
2022/06/28 11:30:50;;;;;;;5.33;2.67;;;;;;;35.05;33.60;99717.91;1819010;77;21569;-81
2022/06/28 11:33:16;;;;;;;2.35;2.20;;;;;;;35.11;32.89;99719.82;1816756;79;21843;-80
2022/06/28 11:35:43;;;;;;;4.62;2.47;;;;;;;35.14;32.61;99712.57;1816483;79;21051;-81
2022/06/28 11:38:15;;;;;;;3.85;2.45;;;;;;;35.22;32.70;99710.14;1816629;78;21119;-81
2022/06/28 11:40:51;;;;;;;4.97;2.37;;;;;;;35.23;32.45;99707.77;1815920;79;21105;-81
2022/06/28 11:43:25;;;;;;;6.60;2.70;;;;;;;35.23;32.38;99707.77;1804777;79;21185;-81
2022/06/28 11:45:53;;;;;;;4.42;2.42;;;;;;;35.15;32.24;99704.16;1798231;79;21195;-81
2022/06/28 11:48:24;;;;;;;5.20;2.75;;;;;;;34.99;32.33;99711.39;1798295;79;21072;-80
2022/06/28 11:50:52;;;;;;;6.05;3.00;;;;;;;34.84;32.35;99710.73;1796470;79;21040;-81
2022/06/28 11:53:20;;;;;;;3.98;2.52;;;;;;;34.76;32.55;99708.48;1798249;79;21704;-81
2022/06/28 11:55:57;;;;;;;3.83;2.47;;;;;;;34.74;33.31;99703.77;1797960;79;22069;-82
2022/06/28 11:58:32;;;;;;;2.45;2.22;;;;;;;34.82;33.36;99703.25;1798114;79;21636;-81
2022/06/28 12:01:14;;;;;;;3.37;2.27;;;;;;;34.92;33.87;99699.58;1797970;79;21048;-81
2022/06/28 12:03:49;;;;;;;4.53;2.30;;;;;;;35.08;33.08;99690.98;1798248;79;21000;-80
2022/06/28 12:06:27;;;;;;;3.33;2.22;;;;;;;35.21;33.20;99688.80;1797963;79;20992;-81
2022/06/28 12:08:57;;;;;;;3.25;2.30;;;;;;;35.35;32.79;99683.66;1797893;79;21093;-80
2022/06/28 12:11:36;;;;;;;2.62;2.33;;;;;;;35.46;33.16;99684.09;1798008;79;21217;-81
2022/06/28 12:14:31;;;;;;;4.05;2.37;;;;;;;35.53;32.64;99678.08;1797940;79;20994;-80
2022/06/28 12:17:00;;;;;;;2.83;2.50;;;;;;;35.56;32.67;99686.38;1797989;79;20996;-80
2022/06/28 12:19:33;;;;;;;4.85;2.40;;;;;;;35.55;32.04;99686.08;1798128;79;21118;-81
2022/06/28 12:22:12;;;;;;;2.70;2.50;;;;;;;35.56;32.50;99682.27;1797763;79;21149;-81
2022/06/28 12:24:50;;;;;;;6.78;2.33;;;;;;;35.62;32.67;99674.59;1798046;79;21125;-81